Minnetonka Mills, Minnesota
Current Conditions -  °F | °C
As of 11:53 PM on Sunday 19 Oct 2014 (Local Time) from KFCM Reporting Station
Clear Clear  
Wind Chill: 56°   Ceiling: Unl
Heat Index: 56°   Visibility: 10mi
Dew Point: 43°   Wind: 12mph
Humidity: 62%   Direction: 330°NNW
Pressure: 29.85"   Gusts: NA
Location:  44.9144°N, 93.4174°W
Report Text: KFCM 200453Z 33010KT 10SM CLR 13/06 A2985 RMK AO2 SLP110 T01330061 $
Loading
Personal Weather Stations






























Interactive Weather Map
Tropical Storm Tracking
New forecast layout! Learn more

10-Day Weather Forecast

Advertisements
Track Severe Weather on mobile